sensor_id;sensor_type;location;lat;lon;timestamp;P1;durP1;ratioP1;P2;durP2;ratioP2
77544;SDS011;66672;50.328;7.610;2024-01-15T00:00:48;29.97;;;22.80;;
77544;SDS011;66672;50.328;7.610;2024-01-15T00:03:15;26.40;;;22.40;;
77544;SDS011;66672;50.328;7.610;2024-01-15T00:05:42;26.63;;;22.10;;
77544;SDS011;66672;50.328;7.610;2024-01-15T00:08:09;29.87;;;22.20;;
77544;SDS011;66672;50.328;7.610;2024-01-15T00:10:35;30.90;;;23.07;;
77544;SDS011;66672;50.328;7.610;2024-01-15T00:13:01;28.37;;;22.17;;
77544;SDS011;66672;50.328;7.610;2024-01-15T00:15:27;30.77;;;23.77;;
77544;SDS011;66672;50.328;7.610;2024-01-15T00:17:55;29.93;;;24.10;;
77544;SDS011;66672;50.328;7.610;2024-01-15T00:20:20;30.33;;;23.00;;
77544;SDS011;66672;50.328;7.610;2024-01-15T00:22:48;24.37;;;21.27;;
77544;SDS011;66672;50.328;7.610;2024-01-15T00:25:14;31.43;;;23.07;;
77544;SDS011;66672;50.328;7.610;2024-01-15T00:27:40;29.87;;;22.43;;
77544;SDS011;66672;50.328;7.610;2024-01-15T00:30:06;26.50;;;21.33;;
77544;SDS011;66672;50.328;7.610;2024-01-15T00:32:32;29.63;;;21.03;;
77544;SDS011;66672;50.328;7.610;2024-01-15T00:34:59;28.10;;;23.60;;
77544;SDS011;66672;50.328;7.610;2024-01-15T00:37:24;30.40;;;23.07;;
77544;SDS011;66672;50.328;7.610;2024-01-15T00:39:51;29.63;;;23.40;;
77544;SDS011;66672;50.328;7.610;2024-01-15T00:42:19;28.17;;;22.23;;
77544;SDS011;66672;50.328;7.610;2024-01-15T00:44:45;31.03;;;23.70;;
77544;SDS011;66672;50.328;7.610;2024-01-15T00:47:12;23.93;;;20.97;;
77544;SDS011;66672;50.328;7.610;2024-01-15T00:49:37;29.63;;;22.27;;
77544;SDS011;66672;50.328;7.610;2024-01-15T00:52:04;32.10;;;22.37;;
77544;SDS011;66672;50.328;7.610;2024-01-15T00:54:30;30.43;;;22.43;;
77544;SDS011;66672;50.328;7.610;2024-01-15T00:56:56;31.83;;;23.87;;
77544;SDS011;66672;50.328;7.610;2024-01-15T00:59:21;26.37;;;22.27;;
77544;SDS011;66672;50.328;7.610;2024-01-15T01:01:49;23.87;;;20.63;;
77544;SDS011;66672;50.328;7.610;2024-01-15T01:04:15;26.03;;;22.17;;
77544;SDS011;66672;50.328;7.610;2024-01-15T01:06:41;23.67;;;21.33;;
77544;SDS011;66672;50.328;7.610;2024-01-15T01:09:09;26.57;;;21.77;;
77544;SDS011;66672;50.328;7.610;2024-01-15T01:11:35;29.93;;;22.43;;
77544;SDS011;66672;50.328;7.610;2024-01-15T01:14:02;28.87;;;22.30;;
77544;SDS011;66672;50.328;7.610;2024-01-15T01:16:28;29.43;;;23.00;;
77544;SDS011;66672;50.328;7.610;2024-01-15T01:18:54;25.93;;;22.33;;
77544;SDS011;66672;50.328;7.610;2024-01-15T01:21:20;30.23;;;22.57;;
77544;SDS011;66672;50.328;7.610;2024-01-15T01:23:47;27.10;;;22.63;;
77544;SDS011;66672;50.328;7.610;2024-01-15T01:26:15;28.77;;;22.77;;
77544;SDS011;66672;50.328;7.610;2024-01-15T01:28:40;28.20;;;22.17;;
77544;SDS011;66672;50.328;7.610;2024-01-15T01:31:07;27.27;;;21.80;;
77544;SDS011;66672;50.328;7.610;2024-01-15T01:33:35;25.40;;;22.63;;
77544;SDS011;66672;50.328;7.610;2024-01-15T01:36:06;27.37;;;22.73;;
77544;SDS011;66672;50.328;7.610;2024-01-15T01:38:35;23.33;;;20.87;;
77544;SDS011;66672;50.328;7.610;2024-01-15T01:41:00;28.23;;;23.03;;
77544;SDS011;66672;50.328;7.610;2024-01-15T01:43:26;30.03;;;22.90;;
77544;SDS011;66672;50.328;7.610;2024-01-15T01:45:54;27.30;;;22.57;;
77544;SDS011;66672;50.328;7.610;2024-01-15T01:48:21;26.83;;;23.33;;
77544;SDS011;66672;50.328;7.610;2024-01-15T01:50:46;29.00;;;22.70;;
77544;SDS011;66672;50.328;7.610;2024-01-15T01:53:13;29.47;;;22.03;;
77544;SDS011;66672;50.328;7.610;2024-01-15T01:55:40;30.87;;;22.73;;
77544;SDS011;66672;50.328;7.610;2024-01-15T01:58:05;30.53;;;23.00;;
77544;SDS011;66672;50.328;7.610;2024-01-15T02:00:31;27.07;;;21.97;;
77544;SDS011;66672;50.328;7.610;2024-01-15T02:02:58;27.00;;;21.73;;
77544;SDS011;66672;50.328;7.610;2024-01-15T02:05:25;26.77;;;22.77;;
77544;SDS011;66672;50.328;7.610;2024-01-15T02:07:52;28.77;;;22.30;;
77544;SDS011;66672;50.328;7.610;2024-01-15T02:10:18;27.60;;;22.33;;
77544;SDS011;66672;50.328;7.610;2024-01-15T02:12:45;30.30;;;22.90;;
77544;SDS011;66672;50.328;7.610;2024-01-15T02:15:13;27.73;;;22.73;;
77544;SDS011;66672;50.328;7.610;2024-01-15T02:20:24;25.30;;;20.97;;
77544;SDS011;66672;50.328;7.610;2024-01-15T02:22:51;28.27;;;22.70;;
77544;SDS011;66672;50.328;7.610;2024-01-15T02:25:18;30.30;;;22.23;;
77544;SDS011;66672;50.328;7.610;2024-01-15T02:27:43;25.97;;;22.60;;
77544;SDS011;66672;50.328;7.610;2024-01-15T02:30:09;29.47;;;22.60;;
77544;SDS011;66672;50.328;7.610;2024-01-15T02:32:35;29.63;;;22.97;;
77544;SDS011;66672;50.328;7.610;2024-01-15T02:35:03;31.43;;;23.13;;
77544;SDS011;66672;50.328;7.610;2024-01-15T02:37:29;29.60;;;22.43;;
77544;SDS011;66672;50.328;7.610;2024-01-15T02:39:56;25.57;;;22.07;;
77544;SDS011;66672;50.328;7.610;2024-01-15T02:42:26;28.00;;;22.93;;
77544;SDS011;66672;50.328;7.610;2024-01-15T02:44:53;34.93;;;22.47;;
77544;SDS011;66672;50.328;7.610;2024-01-15T02:47:20;27.50;;;22.67;;
77544;SDS011;66672;50.328;7.610;2024-01-15T02:49:45;32.00;;;23.37;;
77544;SDS011;66672;50.328;7.610;2024-01-15T02:52:12;29.90;;;22.57;;
77544;SDS011;66672;50.328;7.610;2024-01-15T02:54:38;30.33;;;23.27;;
77544;SDS011;66672;50.328;7.610;2024-01-15T02:57:05;32.83;;;23.07;;
77544;SDS011;66672;50.328;7.610;2024-01-15T02:59:30;26.53;;;21.97;;
77544;SDS011;66672;50.328;7.610;2024-01-15T03:01:57;27.23;;;21.00;;
77544;SDS011;66672;50.328;7.610;2024-01-15T03:04:22;30.40;;;22.40;;
77544;SDS011;66672;50.328;7.610;2024-01-15T03:06:49;28.83;;;22.53;;
77544;SDS011;66672;50.328;7.610;2024-01-15T03:09:15;28.33;;;21.93;;
77544;SDS011;66672;50.328;7.610;2024-01-15T03:11:42;30.20;;;22.43;;
77544;SDS011;66672;50.328;7.610;2024-01-15T03:14:08;32.23;;;21.93;;
77544;SDS011;66672;50.328;7.610;2024-01-15T03:16:33;38.03;;;23.57;;
77544;SDS011;66672;50.328;7.610;2024-01-15T03:18:59;39.83;;;24.77;;
77544;SDS011;66672;50.328;7.610;2024-01-15T03:21:26;41.40;;;24.70;;
77544;SDS011;66672;50.328;7.610;2024-01-15T03:23:52;40.07;;;24.40;;
77544;SDS011;66672;50.328;7.610;2024-01-15T03:26:19;37.00;;;24.63;;
77544;SDS011;66672;50.328;7.610;2024-01-15T03:28:45;34.23;;;22.60;;
77544;SDS011;66672;50.328;7.610;2024-01-15T03:31:12;41.33;;;25.37;;
77544;SDS011;66672;50.328;7.610;2024-01-15T03:33:39;41.50;;;24.27;;
77544;SDS011;66672;50.328;7.610;2024-01-15T03:36:09;31.97;;;22.77;;
77544;SDS011;66672;50.328;7.610;2024-01-15T03:38:39;27.50;;;22.43;;
77544;SDS011;66672;50.328;7.610;2024-01-15T03:41:04;38.13;;;23.67;;
77544;SDS011;66672;50.328;7.610;2024-01-15T03:43:31;35.30;;;24.00;;
77544;SDS011;66672;50.328;7.610;2024-01-15T03:45:57;29.40;;;22.53;;
77544;SDS011;66672;50.328;7.610;2024-01-15T03:48:24;43.27;;;24.33;;
77544;SDS011;66672;50.328;7.610;2024-01-15T03:50:52;35.83;;;22.80;;
77544;SDS011;66672;50.328;7.610;2024-01-15T03:53:18;33.47;;;23.00;;
77544;SDS011;66672;50.328;7.610;2024-01-15T03:55:44;30.57;;;22.90;;
77544;SDS011;66672;50.328;7.610;2024-01-15T03:58:09;33.27;;;23.43;;
77544;SDS011;66672;50.328;7.610;2024-01-15T04:00:34;37.13;;;24.20;;
77544;SDS011;66672;50.328;7.610;2024-01-15T04:03:01;30.80;;;23.07;;
77544;SDS011;66672;50.328;7.610;2024-01-15T04:05:28;35.17;;;23.53;;
77544;SDS011;66672;50.328;7.610;2024-01-15T04:07:54;32.27;;;22.73;;
77544;SDS011;66672;50.328;7.610;2024-01-15T04:10:19;35.40;;;23.93;;
77544;SDS011;66672;50.328;7.610;2024-01-15T04:12:46;34.33;;;24.13;;
77544;SDS011;66672;50.328;7.610;2024-01-15T04:15:12;34.70;;;24.13;;
77544;SDS011;66672;50.328;7.610;2024-01-15T04:17:39;30.07;;;22.17;;
77544;SDS011;66672;50.328;7.610;2024-01-15T04:20:04;32.33;;;23.27;;
77544;SDS011;66672;50.328;7.610;2024-01-15T04:22:32;33.90;;;24.23;;
77544;SDS011;66672;50.328;7.610;2024-01-15T04:24:59;37.73;;;24.43;;
77544;SDS011;66672;50.328;7.610;2024-01-15T04:27:24;37.60;;;23.50;;
77544;SDS011;66672;50.328;7.610;2024-01-15T04:29:49;28.27;;;22.60;;
77544;SDS011;66672;50.328;7.610;2024-01-15T04:32:15;40.90;;;25.23;;
77544;SDS011;66672;50.328;7.610;2024-01-15T04:34:42;33.43;;;23.97;;
77544;SDS011;66672;50.328;7.610;2024-01-15T04:37:10;40.70;;;25.93;;
77544;SDS011;66672;50.328;7.610;2024-01-15T04:39:36;44.33;;;26.10;;
77544;SDS011;66672;50.328;7.610;2024-01-15T04:42:04;41.57;;;24.73;;
77544;SDS011;66672;50.328;7.610;2024-01-15T04:44:30;38.97;;;25.40;;
77544;SDS011;66672;50.328;7.610;2024-01-15T04:46:58;39.30;;;24.63;;
77544;SDS011;66672;50.328;7.610;2024-01-15T04:49:24;39.33;;;24.00;;
77544;SDS011;66672;50.328;7.610;2024-01-15T04:51:52;34.67;;;23.97;;
77544;SDS011;66672;50.328;7.610;2024-01-15T04:54:17;48.43;;;24.77;;
77544;SDS011;66672;50.328;7.610;2024-01-15T04:56:44;33.63;;;24.47;;
77544;SDS011;66672;50.328;7.610;2024-01-15T04:59:11;36.57;;;24.80;;
77544;SDS011;66672;50.328;7.610;2024-01-15T05:01:36;33.73;;;23.70;;
77544;SDS011;66672;50.328;7.610;2024-01-15T05:04:01;37.43;;;24.43;;
77544;SDS011;66672;50.328;7.610;2024-01-15T05:06:28;41.47;;;26.07;;
77544;SDS011;66672;50.328;7.610;2024-01-15T05:08:54;39.50;;;25.53;;
77544;SDS011;66672;50.328;7.610;2024-01-15T05:11:19;40.23;;;26.13;;
77544;SDS011;66672;50.328;7.610;2024-01-15T05:13:45;39.63;;;26.03;;
77544;SDS011;66672;50.328;7.610;2024-01-15T05:16:12;42.13;;;25.23;;
77544;SDS011;66672;50.328;7.610;2024-01-15T05:18:37;38.17;;;24.07;;
77544;SDS011;66672;50.328;7.610;2024-01-15T05:21:03;36.70;;;24.87;;
77544;SDS011;66672;50.328;7.610;2024-01-15T05:23:33;48.30;;;26.93;;
77544;SDS011;66672;50.328;7.610;2024-01-15T05:26:00;36.87;;;24.03;;
77544;SDS011;66672;50.328;7.610;2024-01-15T05:28:26;41.33;;;25.40;;
77544;SDS011;66672;50.328;7.610;2024-01-15T05:30:52;34.90;;;22.70;;
77544;SDS011;66672;50.328;7.610;2024-01-15T05:33:20;36.73;;;25.20;;
77544;SDS011;66672;50.328;7.610;2024-01-15T05:35:47;34.70;;;24.53;;
77544;SDS011;66672;50.328;7.610;2024-01-15T05:38:16;35.67;;;24.57;;
77544;SDS011;66672;50.328;7.610;2024-01-15T05:40:41;41.37;;;26.60;;
77544;SDS011;66672;50.328;7.610;2024-01-15T05:43:06;40.60;;;25.70;;
77544;SDS011;66672;50.328;7.610;2024-01-15T05:45:34;34.77;;;27.33;;
77544;SDS011;66672;50.328;7.610;2024-01-15T05:48:03;39.37;;;25.70;;
77544;SDS011;66672;50.328;7.610;2024-01-15T05:50:29;33.57;;;25.47;;
77544;SDS011;66672;50.328;7.610;2024-01-15T05:52:56;42.90;;;27.30;;
77544;SDS011;66672;50.328;7.610;2024-01-15T05:55:22;41.60;;;25.57;;
77544;SDS011;66672;50.328;7.610;2024-01-15T05:57:48;42.47;;;26.27;;
77544;SDS011;66672;50.328;7.610;2024-01-15T06:00:14;39.43;;;26.23;;
77544;SDS011;66672;50.328;7.610;2024-01-15T06:02:41;36.20;;;26.47;;
77544;SDS011;66672;50.328;7.610;2024-01-15T06:05:07;42.47;;;25.93;;
77544;SDS011;66672;50.328;7.610;2024-01-15T06:07:34;36.03;;;25.50;;
77544;SDS011;66672;50.328;7.610;2024-01-15T06:10:00;38.07;;;25.70;;
77544;SDS011;66672;50.328;7.610;2024-01-15T06:12:25;32.83;;;24.97;;
77544;SDS011;66672;50.328;7.610;2024-01-15T06:14:54;36.30;;;25.63;;
77544;SDS011;66672;50.328;7.610;2024-01-15T06:17:20;33.73;;;26.03;;
77544;SDS011;66672;50.328;7.610;2024-01-15T06:19:45;39.07;;;25.17;;
77544;SDS011;66672;50.328;7.610;2024-01-15T06:22:11;32.57;;;24.70;;
77544;SDS011;66672;50.328;7.610;2024-01-15T06:24:38;33.90;;;25.87;;
77544;SDS011;66672;50.328;7.610;2024-01-15T06:27:03;34.80;;;24.93;;
77544;SDS011;66672;50.328;7.610;2024-01-15T06:29:28;37.03;;;25.53;;
77544;SDS011;66672;50.328;7.610;2024-01-15T06:31:56;40.93;;;25.30;;
77544;SDS011;66672;50.328;7.610;2024-01-15T06:34:22;36.33;;;25.37;;
77544;SDS011;66672;50.328;7.610;2024-01-15T06:36:48;40.10;;;26.07;;
77544;SDS011;66672;50.328;7.610;2024-01-15T06:39:13;32.47;;;25.00;;
77544;SDS011;66672;50.328;7.610;2024-01-15T06:41:39;40.40;;;26.27;;
77544;SDS011;66672;50.328;7.610;2024-01-15T06:44:10;39.27;;;25.97;;
77544;SDS011;66672;50.328;7.610;2024-01-15T06:46:37;39.87;;;25.83;;
77544;SDS011;66672;50.328;7.610;2024-01-15T06:49:03;42.50;;;27.70;;
77544;SDS011;66672;50.328;7.610;2024-01-15T06:51:30;39.60;;;27.20;;
77544;SDS011;66672;50.328;7.610;2024-01-15T06:53:57;39.77;;;26.20;;
77544;SDS011;66672;50.328;7.610;2024-01-15T06:56:24;38.13;;;24.50;;
77544;SDS011;66672;50.328;7.610;2024-01-15T06:58:51;36.57;;;25.07;;
77544;SDS011;66672;50.328;7.610;2024-01-15T07:01:17;36.93;;;26.20;;
77544;SDS011;66672;50.328;7.610;2024-01-15T07:03:43;33.63;;;25.70;;
77544;SDS011;66672;50.328;7.610;2024-01-15T07:06:10;34.47;;;25.80;;
77544;SDS011;66672;50.328;7.610;2024-01-15T07:08:37;36.70;;;24.27;;
77544;SDS011;66672;50.328;7.610;2024-01-15T07:11:06;33.23;;;24.47;;
77544;SDS011;66672;50.328;7.610;2024-01-15T07:13:32;34.67;;;25.80;;
77544;SDS011;66672;50.328;7.610;2024-01-15T07:15:58;37.67;;;26.17;;
77544;SDS011;66672;50.328;7.610;2024-01-15T07:18:24;39.90;;;26.83;;
77544;SDS011;66672;50.328;7.610;2024-01-15T07:20:49;41.03;;;26.30;;
77544;SDS011;66672;50.328;7.610;2024-01-15T07:23:14;39.77;;;24.67;;
77544;SDS011;66672;50.328;7.610;2024-01-15T07:25:40;45.10;;;27.97;;
77544;SDS011;66672;50.328;7.610;2024-01-15T07:28:07;41.03;;;27.73;;
77544;SDS011;66672;50.328;7.610;2024-01-15T07:30:33;43.07;;;26.40;;
77544;SDS011;66672;50.328;7.610;2024-01-15T07:32:58;30.07;;;25.10;;
77544;SDS011;66672;50.328;7.610;2024-01-15T07:35:24;41.30;;;26.17;;
77544;SDS011;66672;50.328;7.610;2024-01-15T07:37:51;37.77;;;25.93;;
77544;SDS011;66672;50.328;7.610;2024-01-15T07:40:17;34.60;;;25.57;;
77544;SDS011;66672;50.328;7.610;2024-01-15T07:42:44;35.33;;;25.80;;
77544;SDS011;66672;50.328;7.610;2024-01-15T07:45:10;31.90;;;24.47;;
77544;SDS011;66672;50.328;7.610;2024-01-15T07:47:38;35.67;;;25.57;;
77544;SDS011;66672;50.328;7.610;2024-01-15T07:50:04;37.27;;;26.60;;
77544;SDS011;66672;50.328;7.610;2024-01-15T07:52:31;41.30;;;26.53;;
77544;SDS011;66672;50.328;7.610;2024-01-15T07:54:57;34.07;;;25.73;;
77544;SDS011;66672;50.328;7.610;2024-01-15T07:57:26;36.07;;;25.80;;
77544;SDS011;66672;50.328;7.610;2024-01-15T07:59:52;31.73;;;25.13;;
77544;SDS011;66672;50.328;7.610;2024-01-15T08:02:19;37.90;;;26.30;;
77544;SDS011;66672;50.328;7.610;2024-01-15T08:04:44;31.13;;;23.80;;
77544;SDS011;66672;50.328;7.610;2024-01-15T08:07:12;33.60;;;25.77;;
77544;SDS011;66672;50.328;7.610;2024-01-15T08:09:38;34.30;;;25.47;;
77544;SDS011;66672;50.328;7.610;2024-01-15T08:12:05;36.73;;;25.10;;
77544;SDS011;66672;50.328;7.610;2024-01-15T08:14:31;32.47;;;25.13;;
77544;SDS011;66672;50.328;7.610;2024-01-15T08:16:58;38.50;;;26.33;;
77544;SDS011;66672;50.328;7.610;2024-01-15T08:19:24;32.03;;;25.67;;
77544;SDS011;66672;50.328;7.610;2024-01-15T08:21:51;33.10;;;26.60;;
77544;SDS011;66672;50.328;7.610;2024-01-15T08:24:16;39.37;;;26.43;;
77544;SDS011;66672;50.328;7.610;2024-01-15T08:26:42;34.60;;;25.40;;
77544;SDS011;66672;50.328;7.610;2024-01-15T08:29:09;33.80;;;25.57;;
77544;SDS011;66672;50.328;7.610;2024-01-15T08:31:35;30.50;;;24.43;;
77544;SDS011;66672;50.328;7.610;2024-01-15T08:34:01;34.27;;;24.40;;
77544;SDS011;66672;50.328;7.610;2024-01-15T08:36:28;33.03;;;24.77;;
77544;SDS011;66672;50.328;7.610;2024-01-15T08:38:55;31.40;;;25.57;;
77544;SDS011;66672;50.328;7.610;2024-01-15T08:41:22;31.97;;;25.30;;
77544;SDS011;66672;50.328;7.610;2024-01-15T08:43:49;28.07;;;23.93;;
77544;SDS011;66672;50.328;7.610;2024-01-15T08:46:15;26.53;;;23.77;;
77544;SDS011;66672;50.328;7.610;2024-01-15T08:48:41;30.33;;;24.60;;
77544;SDS011;66672;50.328;7.610;2024-01-15T08:51:07;32.03;;;25.03;;
77544;SDS011;66672;50.328;7.610;2024-01-15T08:53:33;32.90;;;25.30;;
77544;SDS011;66672;50.328;7.610;2024-01-15T08:55:58;33.03;;;23.93;;
77544;SDS011;66672;50.328;7.610;2024-01-15T08:58:23;30.53;;;24.03;;
77544;SDS011;66672;50.328;7.610;2024-01-15T09:00:50;25.87;;;23.17;;
77544;SDS011;66672;50.328;7.610;2024-01-15T09:03:16;32.73;;;23.70;;
77544;SDS011;66672;50.328;7.610;2024-01-15T09:05:41;28.97;;;23.83;;
77544;SDS011;66672;50.328;7.610;2024-01-15T09:08:07;25.90;;;23.10;;
77544;SDS011;66672;50.328;7.610;2024-01-15T09:10:34;33.50;;;24.43;;
77544;SDS011;66672;50.328;7.610;2024-01-15T09:12:59;27.03;;;22.33;;
77544;SDS011;66672;50.328;7.610;2024-01-15T09:15:26;28.70;;;22.97;;
77544;SDS011;66672;50.328;7.610;2024-01-15T09:17:53;23.27;;;21.17;;
77544;SDS011;66672;50.328;7.610;2024-01-15T09:20:20;26.63;;;23.87;;
77544;SDS011;66672;50.328;7.610;2024-01-15T09:22:46;23.10;;;21.00;;
77544;SDS011;66672;50.328;7.610;2024-01-15T09:25:12;24.30;;;21.70;;
77544;SDS011;66672;50.328;7.610;2024-01-15T09:27:38;23.63;;;21.17;;
77544;SDS011;66672;50.328;7.610;2024-01-15T09:30:05;24.80;;;21.87;;
77544;SDS011;66672;50.328;7.610;2024-01-15T09:32:30;24.33;;;21.73;;
77544;SDS011;66672;50.328;7.610;2024-01-15T09:34:57;25.33;;;21.77;;
77544;SDS011;66672;50.328;7.610;2024-01-15T09:37:23;25.30;;;22.90;;
77544;SDS011;66672;50.328;7.610;2024-01-15T09:39:50;24.37;;;21.87;;
77544;SDS011;66672;50.328;7.610;2024-01-15T09:42:18;25.67;;;22.70;;
77544;SDS011;66672;50.328;7.610;2024-01-15T09:44:47;24.53;;;22.03;;
77544;SDS011;66672;50.328;7.610;2024-01-15T09:47:14;26.77;;;23.53;;
77544;SDS011;66672;50.328;7.610;2024-01-15T09:49:41;26.00;;;22.73;;
77544;SDS011;66672;50.328;7.610;2024-01-15T09:52:06;28.50;;;23.10;;
77544;SDS011;66672;50.328;7.610;2024-01-15T09:54:33;25.37;;;22.63;;
77544;SDS011;66672;50.328;7.610;2024-01-15T09:57:00;26.97;;;22.73;;
77544;SDS011;66672;50.328;7.610;2024-01-15T09:59:29;24.90;;;22.27;;
77544;SDS011;66672;50.328;7.610;2024-01-15T10:01:56;25.83;;;23.03;;
77544;SDS011;66672;50.328;7.610;2024-01-15T10:04:23;26.30;;;22.53;;
77544;SDS011;66672;50.328;7.610;2024-01-15T10:06:50;24.97;;;22.33;;
77544;SDS011;66672;50.328;7.610;2024-01-15T10:09:19;25.23;;;22.43;;
77544;SDS011;66672;50.328;7.610;2024-01-15T10:11:46;25.27;;;22.77;;
77544;SDS011;66672;50.328;7.610;2024-01-15T10:14:12;25.33;;;22.53;;
77544;SDS011;66672;50.328;7.610;2024-01-15T10:16:39;31.27;;;22.73;;
77544;SDS011;66672;50.328;7.610;2024-01-15T10:19:06;25.03;;;22.43;;
77544;SDS011;66672;50.328;7.610;2024-01-15T10:21:35;25.90;;;22.63;;
77544;SDS011;66672;50.328;7.610;2024-01-15T10:24:03;26.80;;;22.90;;
77544;SDS011;66672;50.328;7.610;2024-01-15T10:26:29;25.63;;;22.93;;
77544;SDS011;66672;50.328;7.610;2024-01-15T10:28:56;24.77;;;22.20;;
77544;SDS011;66672;50.328;7.610;2024-01-15T10:31:25;24.73;;;22.27;;
77544;SDS011;66672;50.328;7.610;2024-01-15T10:33:59;26.70;;;23.30;;
77544;SDS011;66672;50.328;7.610;2024-01-15T10:36:43;25.53;;;22.63;;
77544;SDS011;66672;50.328;7.610;2024-01-15T10:39:13;29.17;;;24.03;;
77544;SDS011;66672;50.328;7.610;2024-01-15T10:41:38;28.23;;;23.70;;
77544;SDS011;66672;50.328;7.610;2024-01-15T10:44:04;29.53;;;22.63;;
77544;SDS011;66672;50.328;7.610;2024-01-15T10:46:30;26.50;;;23.70;;
77544;SDS011;66672;50.328;7.610;2024-01-15T10:48:56;27.40;;;23.03;;
77544;SDS011;66672;50.328;7.610;2024-01-15T10:51:23;25.47;;;22.83;;
77544;SDS011;66672;50.328;7.610;2024-01-15T10:53:49;25.10;;;22.40;;
77544;SDS011;66672;50.328;7.610;2024-01-15T10:56:16;24.43;;;21.87;;
77544;SDS011;66672;50.328;7.610;2024-01-15T10:58:41;25.47;;;21.90;;
77544;SDS011;66672;50.328;7.610;2024-01-15T11:01:07;25.53;;;22.83;;
77544;SDS011;66672;50.328;7.610;2024-01-15T11:03:34;25.90;;;22.63;;
77544;SDS011;66672;50.328;7.610;2024-01-15T11:06:02;26.47;;;23.63;;
77544;SDS011;66672;50.328;7.610;2024-01-15T11:08:30;23.97;;;21.47;;
77544;SDS011;66672;50.328;7.610;2024-01-15T11:10:56;27.17;;;22.87;;
77544;SDS011;66672;50.328;7.610;2024-01-15T11:14:09;26.83;;;22.90;;
77544;SDS011;66672;50.328;7.610;2024-01-15T11:16:11;24.40;;;21.80;;
77544;SDS011;66672;50.328;7.610;2024-01-15T11:23:49;26.93;;;23.07;;
77544;SDS011;66672;50.328;7.610;2024-01-15T11:28:56;24.73;;;22.13;;
77544;SDS011;66672;50.328;7.610;2024-01-15T11:33:54;26.53;;;22.93;;
77544;SDS011;66672;50.328;7.610;2024-01-15T11:36:59;24.37;;;21.87;;
77544;SDS011;66672;50.328;7.610;2024-01-15T11:41:55;25.30;;;22.27;;
77544;SDS011;66672;50.328;7.610;2024-01-15T11:44:21;24.77;;;22.13;;
77544;SDS011;66672;50.328;7.610;2024-01-15T11:47:09;24.53;;;22.03;;
77544;SDS011;66672;50.328;7.610;2024-01-15T11:52:20;24.83;;;22.20;;
77544;SDS011;66672;50.328;7.610;2024-01-15T11:55:00;24.33;;;21.90;;
77544;SDS011;66672;50.328;7.610;2024-01-15T11:57:46;26.20;;;23.40;;
77544;SDS011;66672;50.328;7.610;2024-01-15T12:00:15;26.33;;;23.53;;
77544;SDS011;66672;50.328;7.610;2024-01-15T12:02:46;25.43;;;22.93;;
77544;SDS011;66672;50.328;7.610;2024-01-15T12:05:12;24.50;;;22.07;;
77544;SDS011;66672;50.328;7.610;2024-01-15T12:07:43;25.00;;;22.57;;
77544;SDS011;66672;50.328;7.610;2024-01-15T12:13:02;24.00;;;21.60;;
77544;SDS011;66672;50.328;7.610;2024-01-15T12:15:28;24.53;;;22.13;;
77544;SDS011;66672;50.328;7.610;2024-01-15T12:17:55;25.07;;;22.37;;
77544;SDS011;66672;50.328;7.610;2024-01-15T12:20:23;24.83;;;22.30;;
77544;SDS011;66672;50.328;7.610;2024-01-15T12:22:50;25.07;;;22.17;;
77544;SDS011;66672;50.328;7.610;2024-01-15T12:25:15;29.80;;;22.63;;
77544;SDS011;66672;50.328;7.610;2024-01-15T12:27:42;26.03;;;22.83;;
77544;SDS011;66672;50.328;7.610;2024-01-15T12:30:10;26.13;;;23.47;;
77544;SDS011;66672;50.328;7.610;2024-01-15T12:32:35;26.97;;;23.37;;
77544;SDS011;66672;50.328;7.610;2024-01-15T12:35:03;27.47;;;23.83;;
77544;SDS011;66672;50.328;7.610;2024-01-15T12:37:30;31.53;;;24.27;;
77544;SDS011;66672;50.328;7.610;2024-01-15T12:39:58;28.10;;;23.27;;
77544;SDS011;66672;50.328;7.610;2024-01-15T12:42:24;28.37;;;23.43;;
77544;SDS011;66672;50.328;7.610;2024-01-15T12:44:50;27.47;;;23.90;;
77544;SDS011;66672;50.328;7.610;2024-01-15T12:47:16;26.90;;;23.97;;
77544;SDS011;66672;50.328;7.610;2024-01-15T12:49:47;26.67;;;23.87;;
77544;SDS011;66672;50.328;7.610;2024-01-15T12:52:20;26.23;;;23.43;;
77544;SDS011;66672;50.328;7.610;2024-01-15T12:54:51;25.00;;;22.40;;
77544;SDS011;66672;50.328;7.610;2024-01-15T12:57:16;23.07;;;20.83;;
77544;SDS011;66672;50.328;7.610;2024-01-15T12:59:42;23.20;;;21.00;;
77544;SDS011;66672;50.328;7.610;2024-01-15T13:02:09;23.00;;;20.67;;
77544;SDS011;66672;50.328;7.610;2024-01-15T13:04:36;23.20;;;20.83;;
77544;SDS011;66672;50.328;7.610;2024-01-15T13:07:02;26.87;;;21.20;;
77544;SDS011;66672;50.328;7.610;2024-01-15T13:09:28;22.30;;;20.27;;
77544;SDS011;66672;50.328;7.610;2024-01-15T13:11:55;23.63;;;21.23;;
77544;SDS011;66672;50.328;7.610;2024-01-15T13:14:21;21.57;;;19.57;;
77544;SDS011;66672;50.328;7.610;2024-01-15T13:16:48;21.93;;;19.77;;
77544;SDS011;66672;50.328;7.610;2024-01-15T13:19:14;22.50;;;20.20;;
77544;SDS011;66672;50.328;7.610;2024-01-15T13:21:40;25.37;;;22.80;;
77544;SDS011;66672;50.328;7.610;2024-01-15T13:24:07;23.33;;;21.03;;
77544;SDS011;66672;50.328;7.610;2024-01-15T13:26:33;22.80;;;20.63;;
77544;SDS011;66672;50.328;7.610;2024-01-15T13:29:03;21.10;;;19.30;;
77544;SDS011;66672;50.328;7.610;2024-01-15T13:31:30;22.43;;;20.33;;
77544;SDS011;66672;50.328;7.610;2024-01-15T13:33:56;23.93;;;18.50;;
77544;SDS011;66672;50.328;7.610;2024-01-15T13:36:23;20.13;;;18.40;;
77544;SDS011;66672;50.328;7.610;2024-01-15T13:38:49;22.07;;;19.80;;
77544;SDS011;66672;50.328;7.610;2024-01-15T13:41:16;20.50;;;18.70;;
77544;SDS011;66672;50.328;7.610;2024-01-15T13:43:48;21.80;;;19.47;;
77544;SDS011;66672;50.328;7.610;2024-01-15T13:46:16;22.00;;;19.67;;
77544;SDS011;66672;50.328;7.610;2024-01-15T13:48:43;20.63;;;18.73;;
77544;SDS011;66672;50.328;7.610;2024-01-15T13:51:10;20.03;;;18.43;;
77544;SDS011;66672;50.328;7.610;2024-01-15T13:53:39;19.30;;;17.80;;
77544;SDS011;66672;50.328;7.610;2024-01-15T13:56:05;19.17;;;17.57;;
77544;SDS011;66672;50.328;7.610;2024-01-15T13:58:31;19.57;;;17.80;;
77544;SDS011;66672;50.328;7.610;2024-01-15T14:00:59;19.67;;;17.97;;
77544;SDS011;66672;50.328;7.610;2024-01-15T14:03:24;19.27;;;17.67;;
77544;SDS011;66672;50.328;7.610;2024-01-15T14:05:52;19.07;;;17.67;;
77544;SDS011;66672;50.328;7.610;2024-01-15T14:08:17;18.90;;;17.40;;
77544;SDS011;66672;50.328;7.610;2024-01-15T14:10:42;19.40;;;17.70;;
77544;SDS011;66672;50.328;7.610;2024-01-15T14:13:09;18.33;;;17.03;;
77544;SDS011;66672;50.328;7.610;2024-01-15T14:15:34;18.30;;;17.00;;
77544;SDS011;66672;50.328;7.610;2024-01-15T14:17:59;19.03;;;17.43;;
77544;SDS011;66672;50.328;7.610;2024-01-15T14:20:27;18.87;;;17.33;;
77544;SDS011;66672;50.328;7.610;2024-01-15T14:22:53;19.03;;;17.10;;
77544;SDS011;66672;50.328;7.610;2024-01-15T14:25:20;18.33;;;16.80;;
77544;SDS011;66672;50.328;7.610;2024-01-15T14:27:46;18.17;;;16.73;;
77544;SDS011;66672;50.328;7.610;2024-01-15T14:30:13;18.10;;;16.80;;
77544;SDS011;66672;50.328;7.610;2024-01-15T14:32:42;18.93;;;17.13;;
77544;SDS011;66672;50.328;7.610;2024-01-15T14:35:09;19.27;;;17.47;;
77544;SDS011;66672;50.328;7.610;2024-01-15T14:37:39;18.40;;;16.87;;
77544;SDS011;66672;50.328;7.610;2024-01-15T14:40:05;18.67;;;17.17;;